Time;durP1;ratioP1;P1;durP2;ratioP2;P2;SDS_P1;SDS_P2;PMS_P1;PMS_P2;Temp;Humidity;BMP_temperature;BMP_pressure;BME280_temperature;BME280_humidity;BME280_pressure;Samples;Min_cycle;Max_cycle;Signal;HPM_P1;HPM_P2
2022/03/29 00:03:33;;;;;;;;;;;9.50;77.80;;;8.38;45.83;95432.19;10469169;28;1807;-74
2022/03/29 00:08:36;;;;;;;;;;;9.50;78.00;;;8.39;46.37;95431.94;10472013;28;1859;-74
2022/03/29 00:13:40;;;;;;;;;;;9.60;78.30;;;8.38;46.05;95422.28;10468522;28;1930;-74
2022/03/29 00:19:00;;;;;;;;;;;9.60;78.50;;;8.43;45.94;95426.84;10474029;28;2075;-74
2022/03/29 00:24:03;;;;;;;;;;;9.50;78.60;;;8.44;46.02;95416.94;10469080;28;2268;-74
2022/03/29 00:29:08;;;;;;;;;;;9.60;78.70;;;8.38;46.04;95421.50;10473024;28;1896;-75
2022/03/29 00:34:11;;;;;;;;;;;9.60;78.80;;;8.34;46.05;95407.00;10474149;28;1993;-74
2022/03/29 00:39:14;;;;;;;;;;;9.50;78.80;;;8.32;46.87;95412.63;10473744;28;1833;-73
2022/03/29 00:44:18;;;;;;;;;;;9.50;79.20;;;8.24;47.42;95402.44;10473788;28;1899;-74
2022/03/29 00:49:21;;;;;;;;;;;9.50;79.50;;;8.16;47.79;95399.50;10471089;28;1968;-73
2022/03/29 00:54:24;;;;;;;;;;;9.40;79.70;;;8.16;48.33;95399.50;10476283;28;1921;-73
2022/03/29 00:59:26;;;;;;;;;;;9.30;80.10;;;8.15;47.42;95390.69;10472372;28;2460;-73
2022/03/29 01:04:30;;;;;;;;;;;9.30;80.30;;;8.13;47.57;95388.25;10470709;28;1974;-73
2022/03/29 01:09:34;;;;;;;;;;;9.30;80.70;;;8.12;48.08;95383.97;10470487;28;1920;-72
2022/03/29 01:14:38;;;;;;;;;;;9.20;80.60;;;8.13;47.57;95382.09;10473614;28;1909;-72
2022/03/29 01:19:41;;;;;;;;;;;9.20;80.50;;;8.12;48.13;95373.25;10470958;28;1993;-74
2022/03/29 01:24:46;;;;;;;;;;;9.30;80.80;;;8.18;47.74;95360.69;10474444;28;1975;-74
2022/03/29 01:29:50;;;;;;;;;;;9.30;80.70;;;8.18;47.11;95355.31;10470436;28;1907;-73
2022/03/29 01:34:53;;;;;;;;;;;9.20;80.60;;;8.23;47.22;95341.13;10478547;28;1975;-74
2022/03/29 01:39:57;;;;;;;;;;;9.30;80.60;;;8.15;48.05;95345.16;10476317;28;1905;-73
2022/03/29 01:45:01;;;;;;;;;;;9.40;81.00;;;8.18;48.25;95330.44;10471396;28;2007;-74
2022/03/29 01:50:04;;;;;;;;;;;9.30;80.90;;;8.20;48.18;95330.94;10472294;28;1919;-74
2022/03/29 01:55:07;;;;;;;;;;;9.30;81.10;;;8.17;47.77;95316.25;10471335;28;1975;-73
2022/03/29 02:05:32;;;;;;;;;;;9.20;81.30;;;8.19;48.54;95302.56;10469019;28;2219;-73
2022/03/29 02:10:35;;;;;;;;;;;9.30;81.40;;;8.12;48.73;95303.66;10496666;28;2051;-73
2022/03/29 02:15:38;;;;;;;;;;;9.30;81.40;;;8.06;49.39;95299.38;10468201;28;1768;-74
2022/03/29 02:20:41;;;;;;;;;;;9.20;81.30;;;8.04;48.25;95290.81;10476101;28;1934;-74
2022/03/29 02:25:46;;;;;;;;;;;9.20;81.30;;;8.07;48.73;95276.88;10473239;28;2019;-73
2022/03/29 02:30:48;;;;;;;;;;;9.20;81.40;;;8.03;48.59;95278.50;10474986;28;2086;-73
2022/03/29 02:35:52;;;;;;;;;;;9.20;81.40;;;8.04;48.74;95277.44;10469905;28;1923;-73
2022/03/29 02:40:58;;;;;;;;;;;9.20;81.70;;;8.03;49.37;95272.34;10468911;28;1912;-73
2022/03/29 02:46:03;;;;;;;;;;;9.20;81.90;;;8.04;48.87;95263.25;10472962;28;1957;-74
2022/03/29 02:51:06;;;;;;;;;;;9.20;82.10;;;8.00;49.51;95260.28;10482020;28;1985;-74
2022/03/29 02:56:09;;;;;;;;;;;9.10;82.10;;;8.04;49.35;95257.91;10477755;28;1918;-73
2022/03/29 03:01:12;;;;;;;;;;;9.10;82.30;;;7.99;49.92;95256.03;10475519;28;1919;-75
2022/03/29 03:06:15;;;;;;;;;;;9.10;82.30;;;8.03;49.74;95251.75;10477386;28;2343;-73
2022/03/29 03:11:19;;;;;;;;;;;9.20;82.50;;;7.91;49.99;95253.91;10475396;28;2044;-73
2022/03/29 03:16:22;;;;;;;;;;;9.10;82.60;;;7.94;49.55;95250.66;10478762;28;1997;-73
2022/03/29 03:21:26;;;;;;;;;;;9.20;82.90;;;7.85;49.97;95238.91;10477356;28;1993;-73
2022/03/29 03:26:30;;;;;;;;;;;9.00;82.90;;;7.85;50.42;95239.72;10474487;28;1982;-73
2022/03/29 03:31:34;;;;;;;;;;;9.00;83.20;;;7.86;50.51;95240.50;10473919;28;1974;-73
2022/03/29 03:36:37;;;;;;;;;;;9.00;83.20;;;7.89;50.39;95231.13;10472766;28;1944;-73
2022/03/29 03:41:40;;;;;;;;;;;9.00;83.30;;;7.79;50.58;95229.28;10492849;28;1896;-72
2022/03/29 03:46:44;;;;;;;;;;;8.90;83.50;;;7.80;50.42;95220.19;10480032;28;2002;-73
2022/03/29 03:51:47;;;;;;;;;;;8.90;83.60;;;7.71;51.32;95219.94;10470512;28;1989;-73
2022/03/29 03:56:50;;;;;;;;;;;8.90;83.70;;;7.67;51.12;95210.84;10470911;28;1903;-73
2022/03/29 04:01:53;;;;;;;;;;;8.80;84.00;;;7.72;51.00;95213.50;10472371;28;1903;-73
2022/03/29 04:06:57;;;;;;;;;;;8.90;84.20;;;7.76;50.59;95198.53;10484433;28;2088;-73
2022/03/29 04:12:00;;;;;;;;;;;9.00;84.30;;;7.70;50.96;95204.13;10472320;28;1995;-74
2022/03/29 04:17:03;;;;;;;;;;;8.80;84.20;;;7.69;51.50;95197.97;10471002;28;1981;-74
2022/03/29 04:22:07;;;;;;;;;;;8.80;84.30;;;7.66;52.07;95195.06;10474976;28;2019;-73
2022/03/29 04:27:10;;;;;;;;;;;8.90;84.60;;;7.70;51.84;95180.06;10475031;28;1811;-73
2022/03/29 04:32:12;;;;;;;;;;;8.80;84.40;;;7.68;51.77;95179.53;10472668;28;1918;-73
2022/03/29 04:37:18;;;;;;;;;;;8.80;84.40;;;7.61;52.25;95173.66;10476161;28;1903;-73
2022/03/29 04:42:21;;;;;;;;;;;8.70;84.70;;;7.53;52.04;95162.44;10468554;28;1868;-72
2022/03/29 04:47:24;;;;;;;;;;;8.80;84.90;;;7.55;51.99;95168.31;10467111;28;1849;-70
2022/03/29 04:52:27;;;;;;;;;;;8.70;84.90;;;7.63;51.66;95164.28;10466321;28;2109;-71
2022/03/29 04:57:30;;;;;;;;;;;8.70;85.10;;;7.67;51.86;95154.66;10473229;28;1824;-74
2022/03/29 05:02:33;;;;;;;;;;;8.80;84.90;;;7.68;51.76;95145.56;10467965;28;2013;-72
2022/03/29 05:07:36;;;;;;;;;;;8.80;84.80;;;7.68;51.43;95148.22;10485774;28;1883;-72
2022/03/29 05:12:39;;;;;;;;;;;8.80;84.90;;;7.66;51.95;95152.25;10471306;28;2018;-72
2022/03/29 05:17:43;;;;;;;;;;;8.70;84.90;;;7.73;52.05;95150.09;10467667;28;2019;-73
2022/03/29 05:22:46;;;;;;;;;;;8.80;85.00;;;7.74;51.50;95146.34;10460722;28;2483;-71
2022/03/29 05:27:49;;;;;;;;;;;9.00;85.10;;;7.85;51.05;95145.25;10475220;28;1852;-72
2022/03/29 05:32:57;;;;;;;;;;;8.70;84.90;;;7.88;51.55;95142.03;10471922;28;1918;-73
2022/03/29 05:38:00;;;;;;;;;;;8.90;85.00;;;8.06;50.97;95144.13;10475830;28;1981;-72
2022/03/29 05:43:04;;;;;;;;;;;9.10;84.80;;;8.27;50.48;95141.34;10464987;28;1975;-72
2022/03/29 05:53:28;;;;;;;;;;;9.30;84.40;;;8.58;50.00;95140.19;10491541;28;1942;-73
2022/03/29 05:58:31;;;;;;;;;;;9.50;84.30;;;8.71;49.75;95137.97;10472860;28;1974;-74
2022/03/29 06:03:34;;;;;;;;;;;9.80;84.00;;;8.85;49.32;95149.69;10466388;28;1872;-73
2022/03/29 06:08:37;;;;;;;;;;;9.80;83.80;;;8.97;48.81;95147.47;10471186;28;1852;-72
2022/03/29 06:13:41;;;;;;;;;;;9.80;83.40;;;9.06;48.99;95151.16;10469315;28;1914;-72
2022/03/29 06:18:43;;;;;;;;;;;9.80;83.20;;;9.29;48.03;95146.97;10471567;28;1905;-72
2022/03/29 06:23:48;;;;;;;;;;;10.20;82.90;;;9.42;47.00;95142.84;10473062;28;1769;-73
2022/03/29 06:28:52;;;;;;;;;;;10.30;82.00;;;9.70;45.97;95141.25;10478426;28;1777;-73
2022/03/29 06:33:55;;;;;;;;;;;10.40;81.50;;;10.07;45.07;95142.50;10486171;28;1985;-74
2022/03/29 06:38:58;;;;;;;;;;;10.60;80.90;;;10.53;44.29;95146.25;10481642;28;1812;-74
2022/03/29 06:44:01;;;;;;;;;;;11.00;80.40;;;11.00;43.21;95135.66;10473862;28;1852;-74
2022/03/29 06:49:06;;;;;;;;;;;11.30;79.70;;;11.33;42.06;95133.84;10467414;28;1804;-75
2022/03/29 06:54:08;;;;;;;;;;;11.80;78.80;;;11.37;41.99;95132.16;10478124;28;1979;-77
2022/03/29 06:59:11;;;;;;;;;;;12.10;78.30;;;11.37;41.24;95121.38;10469534;28;1709;-75
2022/03/29 07:04:14;;;;;;;;;;;12.10;77.50;;;11.37;41.33;95124.06;10482710;28;1886;-75
2022/03/29 07:14:52;;;;;;;;;;;12.40;76.80;;;11.96;39.85;95122.56;10471057;28;1910;-74
2022/03/29 07:19:55;;;;;;;;;;;12.50;76.40;;;12.37;38.40;95113.69;10478238;28;1766;-73
2022/03/29 07:25:00;;;;;;;;;;;12.80;75.40;;;12.88;37.37;95108.00;10474244;28;1841;-73
2022/03/29 07:30:04;;;;;;;;;;;13.20;74.70;;;13.43;36.75;95112.44;10478895;28;2017;-74
2022/03/29 07:35:08;;;;;;;;;;;13.50;74.00;;;13.64;36.48;95110.81;10477393;28;1969;-74
2022/03/29 07:40:11;;;;;;;;;;;14.00;73.40;;;14.07;35.11;95102.94;10475784;28;1868;-73
2022/03/29 07:45:16;;;;;;;;;;;;;;;14.36;33.86;95107.00;10475383;28;1875;-73
2022/03/29 07:50:19;;;;;;;;;;;;;;;14.34;33.23;95107.31;10474120;28;1820;-73
2022/03/29 07:55:36;;;;;;;;;;;14.80;70.30;;;14.26;33.88;95102.69;10477149;28;1882;-73
2022/03/29 08:00:49;;;;;;;;;;;14.90;70.50;;;14.38;33.27;95103.97;10476445;28;1836;-73
2022/03/29 08:05:54;;;;;;;;;;;15.00;69.90;;;14.47;33.13;95100.22;10474751;28;1964;-73
2022/03/29 08:10:57;;;;;;;;;;;15.00;69.60;;;14.73;33.64;95096.78;10471917;28;1944;-74
2022/03/29 08:16:01;;;;;;;;;;;15.20;69.80;;;14.95;32.74;95093.13;10492947;28;1906;-77
2022/03/29 08:21:47;;;;;;;;;;;15.40;69.40;;;14.96;32.48;95095.53;10472019;28;1807;-73
2022/03/29 08:26:30;;;;;;;;;;;15.50;68.80;;;15.11;32.68;95099.69;10467390;28;1812;-73
2022/03/29 08:31:34;;;;;;;;;;;15.70;69.10;;;15.40;32.34;95085.50;10469468;28;1844;-73
2022/03/29 08:36:38;;;;;;;;;;;15.70;68.70;;;15.45;32.08;95079.91;10474394;28;2298;-73
2022/03/29 08:41:41;;;;;;;;;;;15.90;68.50;;;15.53;31.88;95076.41;10471807;28;1879;-75
2022/03/29 08:46:46;;;;;;;;;;;16.10;68.20;;;15.51;32.01;95075.13;10463458;28;1816;-74
2022/03/29 08:51:50;;;;;;;;;;;16.10;68.00;;;15.98;31.09;95070.56;10473888;28;1867;-73
2022/03/29 08:56:53;;;;;;;;;;;16.30;68.00;;;16.28;29.57;95067.88;10474821;28;1914;-74
2022/03/29 09:01:56;;;;;;;;;;;16.80;75.00;;;16.11;30.57;95074.97;10488565;28;1824;-73
2022/03/29 09:07:00;;;;;;;;;;;16.80;66.50;;;16.59;29.66;95076.47;10475625;28;1865;-73
2022/03/29 09:12:03;;;;;;;;;;;17.00;73.40;;;16.84;28.67;95068.53;10482189;28;1848;-73
2022/03/29 09:17:10;;;;;;;;;;;17.30;65.10;;;17.02;28.90;95072.72;10475934;28;1938;-75
2022/03/29 09:22:13;;;;;;;;;;;17.40;65.30;;;17.13;28.40;95054.91;10475272;28;1763;-74
2022/03/29 09:27:16;;;;;;;;;;;17.60;64.60;;;17.34;28.46;95054.88;10472061;28;1843;-77
2022/03/29 09:32:39;;;;;;;;;;;17.90;66.00;;;17.45;28.21;95049.81;10490009;28;2143;-76
2022/03/29 09:37:44;;;;;;;;;;;18.00;65.70;;;17.53;28.34;95046.22;10470244;28;1869;-76
2022/03/29 09:42:47;;;;;;;;;;;18.00;64.50;;;17.14;28.94;95044.84;10465078;28;1965;-76
2022/03/29 09:47:53;;;;;;;;;;;17.80;64.50;;;17.50;29.15;95036.03;10474226;28;1911;-76
2022/03/29 09:52:55;;;;;;;;;;;17.80;65.30;;;17.60;28.50;95030.16;10468437;28;1923;-77
2022/03/29 09:57:58;;;;;;;;;;;18.00;64.60;;;17.73;27.86;95015.50;10488446;28;1857;-75
2022/03/29 10:03:01;;;;;;;;;;;18.30;64.20;;;18.20;28.22;95008.88;10478737;28;1898;-76
2022/03/29 10:13:25;;;;;;;;;;;18.80;64.40;;;18.75;27.07;94991.91;10477443;28;1914;-76
2022/03/29 10:18:28;;;;;;;;;;;19.20;64.60;;;18.97;27.20;94992.53;10497643;28;1800;-76
2022/03/29 10:23:31;;;;;;;;;;;19.40;67.90;;;19.09;26.62;94968.78;10486533;28;1812;-76
2022/03/29 10:28:35;;;;;;;;;;;19.60;68.00;;;19.22;25.86;94974.97;10477612;28;1906;-76
2022/03/29 10:33:38;;;;;;;;;;;19.60;67.50;;;19.29;25.52;94972.41;10477551;28;1914;-76
2022/03/29 10:38:40;;;;;;;;;;;19.60;65.20;;;18.88;25.73;94968.16;10477371;28;1863;-77
2022/03/29 10:43:44;;;;;;;;;;;19.50;69.90;;;18.87;25.88;94969.31;10480345;28;1827;-75
2022/03/29 10:48:52;;;;;;;;;;;19.30;67.00;;;18.57;26.11;94966.06;10492299;28;1817;-76
2022/03/29 10:53:55;;;;;;;;;;;19.20;68.30;;;19.01;25.08;94961.53;10490623;28;1988;-73
2022/03/29 10:58:58;;;;;;;;;;;19.40;63.10;;;18.85;25.28;94953.31;10478156;28;1903;-75
2022/03/29 11:04:01;;;;;;;;;;;19.40;61.70;;;18.57;26.00;94952.44;10480260;28;2009;-73
2022/03/29 11:09:04;;;;;;;;;;;19.20;61.90;;;18.81;25.92;94963.31;10481347;28;1896;-74
2022/03/29 11:14:07;;;;;;;;;;;19.20;61.50;;;19.11;25.93;94958.31;10476860;28;2270;-74
2022/03/29 11:19:10;;;;;;;;;;;19.50;61.70;;;18.74;26.03;94956.88;10496606;28;1788;-77
2022/03/29 11:24:15;;;;;;;;;;;19.30;61.60;;;18.69;26.50;94952.44;10496589;28;1859;-77
2022/03/29 11:29:18;;;;;;;;;;;19.20;61.80;;;19.04;26.26;94941.00;10502785;28;1823;-77
2022/03/29 11:34:22;;;;;;;;;;;19.40;61.70;;;18.83;25.66;94944.72;10505503;28;1964;-76
2022/03/29 11:39:27;;;;;;;;;;;19.50;61.10;;;19.29;25.50;94928.03;10480186;28;1840;-78
2022/03/29 11:44:31;;;;;;;;;;;19.60;61.20;;;18.80;26.00;94923.59;10495475;28;1852;-77
2022/03/29 11:49:34;;;;;;;;;;;19.60;60.80;;;18.84;25.88;94919.06;10500239;28;1896;-77
2022/03/29 11:54:37;;;;;;;;;;;19.50;61.00;;;19.60;24.86;94925.38;10485698;28;1902;-78
2022/03/29 11:59:40;;;;;;;;;;;19.70;61.10;;;18.95;25.00;94904.94;10470054;28;1869;-75
2022/03/29 12:04:44;;;;;;;;;;;19.70;60.00;;;19.27;23.48;94894.88;10466788;28;1825;-74
2022/03/29 12:09:48;;;;;;;;;;;19.80;58.50;;;19.30;23.24;94886.81;10473723;28;1806;-75
2022/03/29 12:14:52;;;;;;;;;;;19.80;58.40;;;19.52;23.17;94873.72;10470245;28;2023;-76
2022/03/29 12:19:57;;;;;;;;;;;19.90;58.60;;;19.16;24.51;94861.94;10472202;28;1847;-75
2022/03/29 12:25:00;;;;;;;;;;;19.80;59.20;;;19.03;24.14;94861.22;10477677;28;1975;-75
2022/03/29 12:30:04;;;;;;;;;;;19.70;59.00;;;19.26;23.79;94855.94;10480337;28;1919;-75
2022/03/29 12:35:08;;;;;;;;;;;19.70;58.80;;;19.36;23.60;94847.25;10474443;28;2040;-75
2022/03/29 12:40:14;;;;;;;;;;;19.80;58.60;;;19.52;23.40;94843.72;10473967;28;1829;-75
2022/03/29 12:45:17;;;;;;;;;;;20.00;58.20;;;19.45;23.48;94844.34;10473877;28;1883;-76
2022/03/29 12:50:20;;;;;;;;;;;20.00;58.20;;;19.54;23.50;94833.28;10471768;28;1900;-75
2022/03/29 12:55:24;;;;;;;;;;;19.90;58.10;;;19.21;23.30;94822.72;10464427;28;1910;-75
2022/03/29 13:00:27;;;;;;;;;;;20.00;57.50;;;19.16;23.44;94816.41;10470293;28;1878;-75
2022/03/29 13:05:31;;;;;;;;;;;19.70;58.10;;;18.94;24.24;94802.59;10471235;28;2072;-74
2022/03/29 13:10:35;;;;;;;;;;;19.70;58.50;;;19.01;23.35;94803.56;10479198;28;2120;-74
2022/03/29 13:15:38;;;;;;;;;;;19.70;57.50;;;18.79;23.49;94785.91;10521087;28;1913;-73
2022/03/29 13:20:41;;;;;;;;;;;19.50;57.60;;;18.86;23.38;94785.28;10473584;28;1904;-73
2022/03/29 13:25:45;;;;;;;;;;;19.40;57.70;;;18.62;22.74;94775.28;10482924;28;2055;-76
2022/03/29 13:30:49;;;;;;;;;;;19.20;57.00;;;18.52;23.48;94770.38;10471238;28;1840;-75
2022/03/29 13:35:52;;;;;;;;;;;19.10;57.70;;;18.66;23.99;94770.75;10475746;28;1973;-74
2022/03/29 13:40:55;;;;;;;;;;;19.10;58.40;;;18.53;23.37;94759.13;10469384;28;1986;-74
2022/03/29 13:45:58;;;;;;;;;;;19.20;57.50;;;18.83;22.72;94759.56;10470140;28;1883;-75
2022/03/29 13:51:02;;;;;;;;;;;19.20;57.10;;;18.69;22.79;94742.84;10468897;28;1813;-75
2022/03/29 13:56:05;;;;;;;;;;;19.30;57.00;;;19.13;22.83;94740.03;10472398;28;1910;-76
2022/03/29 14:01:08;;;;;;;;;;;19.40;57.30;;;18.58;23.36;94736.31;10480535;28;2107;-73
2022/03/29 14:06:12;;;;;;;;;;;19.40;57.20;;;19.05;23.12;94730.91;10478744;28;1864;-74
2022/03/29 14:11:15;;;;;;;;;;;19.60;57.40;;;18.65;23.05;94725.63;10474415;28;1836;-75
2022/03/29 14:16:20;;;;;;;;;;;19.20;57.00;;;18.97;22.87;94712.03;10468591;28;1922;-75
2022/03/29 14:21:23;;;;;;;;;;;19.40;57.10;;;19.06;22.86;94701.75;10471229;28;1883;-75
2022/03/29 14:26:26;;;;;;;;;;;19.60;57.20;;;18.69;23.49;94709.38;10470937;28;1852;-75
2022/03/29 14:31:29;;;;;;;;;;;19.60;57.00;;;18.49;23.39;94695.66;10470120;28;1919;-74
2022/03/29 14:36:33;;;;;;;;;;;19.20;57.20;;;18.33;24.42;94678.53;10474152;28;1914;-75
2022/03/29 14:41:36;;;;;;;;;;;19.00;57.90;;;18.18;24.59;94680.06;10475600;28;1933;-75
2022/03/29 14:46:39;;;;;;;;;;;18.80;58.30;;;18.41;24.79;94671.34;10481537;28;1809;-74
2022/03/29 14:51:43;;;;;;;;;;;18.90;58.70;;;18.01;24.99;94672.25;10478690;28;2035;-75
2022/03/29 14:56:47;;;;;;;;;;;18.90;58.80;;;17.92;25.56;94660.72;10475128;28;1963;-73
2022/03/29 15:01:50;;;;;;;;;;;18.50;59.30;;;18.10;25.49;94653.84;10476417;28;1873;-74
2022/03/29 15:06:53;;;;;;;;;;;18.70;59.40;;;18.14;25.38;94651.22;10479277;28;2110;-75
2022/03/29 15:11:57;;;;;;;;;;;18.70;59.30;;;17.82;26.36;94660.09;10478191;28;2923;-74
2022/03/29 15:17:00;;;;;;;;;;;18.70;59.90;;;17.20;27.71;94645.09;10477758;28;2021;-75
2022/03/29 15:22:04;;;;;;;;;;;18.20;61.00;;;17.00;28.01;94637.88;10475770;28;1991;-75
2022/03/29 15:27:10;;;;;;;;;;;17.90;61.80;;;17.01;28.25;94632.09;10473922;28;2567;-75
2022/03/29 15:32:13;;;;;;;;;;;17.80;62.00;;;16.98;28.33;94623.84;10470727;28;1867;-76
2022/03/29 15:37:16;;;;;;;;;;;17.70;62.30;;;17.25;27.82;94620.41;10479582;28;1964;-75
2022/03/29 15:42:19;;;;;;;;;;;17.70;62.00;;;17.23;27.37;94619.94;10490203;28;1877;-73
2022/03/29 15:47:22;;;;;;;;;;;17.90;61.80;;;17.09;27.98;94603.25;10480465;28;1824;-74
2022/03/29 15:52:26;;;;;;;;;;;17.80;61.70;;;16.99;28.67;94603.72;10480671;28;1833;-75
2022/03/29 15:57:29;;;;;;;;;;;17.70;62.10;;;17.02;27.55;94603.03;10473992;28;2140;-74
2022/03/29 16:02:32;;;;;;;;;;;17.80;61.80;;;16.88;27.55;94594.47;10471316;28;1908;-74
2022/03/29 16:07:36;;;;;;;;;;;17.80;61.60;;;17.01;28.00;94588.66;10468739;28;1906;-75
2022/03/29 16:12:39;;;;;;;;;;;17.60;62.10;;;16.94;27.72;94580.31;10471883;28;1856;-72
2022/03/29 16:17:42;;;;;;;;;;;17.70;61.60;;;16.60;28.19;94581.56;10472029;28;1973;-76
2022/03/29 16:22:45;;;;;;;;;;;17.50;61.90;;;16.42;28.62;94572.09;10471858;28;1869;-75
2022/03/29 16:27:48;;;;;;;;;;;17.40;62.20;;;16.47;28.39;94572.63;10464628;28;1506;-74
2022/03/29 16:32:52;;;;;;;;;;;17.30;62.40;;;16.54;28.43;94574.00;10475490;28;1792;-76
2022/03/29 16:37:55;;;;;;;;;;;17.30;62.50;;;16.32;28.53;94565.19;10473498;28;1987;-75
2022/03/29 16:42:58;;;;;;;;;;;17.20;62.20;;;16.06;28.98;94568.22;10473075;28;1781;-74
2022/03/29 16:48:01;;;;;;;;;;;17.10;62.60;;;15.97;29.42;94558.59;10465150;28;1927;-75
2022/03/29 16:53:05;;;;;;;;;;;16.90;63.00;;;15.75;29.42;94557.91;10473129;28;1900;-75
2022/03/29 16:58:08;;;;;;;;;;;16.70;62.90;;;15.60;30.20;94562.03;10469944;28;1976;-75
2022/03/29 17:03:12;;;;;;;;;;;16.60;63.50;;;15.51;30.46;94558.59;10468548;28;1766;-75
2022/03/29 17:08:16;;;;;;;;;;;16.50;63.90;;;15.38;30.65;94559.69;10474303;28;1982;-74
2022/03/29 17:13:19;;;;;;;;;;;16.30;66.10;;;15.26;31.22;94557.72;10483183;28;1784;-74
2022/03/29 17:18:22;;;;;;;;;;;16.20;64.90;;;15.11;31.71;94561.03;10480770;28;1910;-74
2022/03/29 17:23:45;;;;;;;;;;;16.10;66.50;;;14.96;32.13;94554.31;10475466;28;1950;-73
2022/03/29 17:28:47;;;;;;;;;;;16.00;65.30;;;14.85;32.15;94553.91;10470697;28;1825;-73
2022/03/29 17:33:50;;;;;;;;;;;15.90;65.70;;;14.77;32.53;94551.28;10470934;28;1971;-73
2022/03/29 17:38:53;;;;;;;;;;;15.80;66.00;;;14.59;33.13;94567.63;10491007;28;1923;-74
2022/03/29 17:43:56;;;;;;;;;;;15.70;66.50;;;14.50;33.11;94552.56;10471331;28;1772;-74
2022/03/29 17:49:00;;;;;;;;;;;15.60;66.60;;;14.34;33.67;94550.41;10471299;28;1780;-74
2022/03/29 17:54:03;;;;;;;;;;;15.50;67.10;;;14.25;34.48;94540.75;10471912;28;1804;-74
2022/03/29 17:59:06;;;;;;;;;;;15.40;67.60;;;14.17;34.13;94547.00;10465115;28;1981;-75
2022/03/29 18:04:09;;;;;;;;;;;15.30;67.80;;;14.13;34.72;94554.19;10470984;28;1904;-73
2022/03/29 18:09:12;;;;;;;;;;;15.20;67.80;;;14.16;34.25;94561.63;10469961;28;2038;-72
2022/03/29 18:14:19;;;;;;;;;;;15.20;68.00;;;14.18;34.73;94571.00;10491226;28;1851;-74
2022/03/29 18:19:23;;;;;;;;;;;15.20;68.20;;;14.24;33.88;94572.41;10476252;28;1955;-72
2022/03/29 18:24:26;;;;;;;;;;;15.20;68.10;;;14.26;33.88;94574.78;10473348;28;1769;-72
2022/03/29 18:29:29;;;;;;;;;;;15.20;68.00;;;14.29;34.44;94584.94;10472590;28;1856;-71
2022/03/29 18:34:32;;;;;;;;;;;15.30;68.20;;;14.19;34.74;94585.31;10475336;28;1721;-72
2022/03/29 18:39:35;;;;;;;;;;;15.20;68.30;;;14.23;34.47;94586.25;10502161;28;1980;-72
2022/03/29 18:44:38;;;;;;;;;;;15.20;68.30;;;14.34;33.30;94576.66;10472270;28;1914;-72
2022/03/29 18:49:41;;;;;;;;;;;15.20;67.30;;;14.32;32.83;94578.91;10473356;28;1863;-72
2022/03/29 18:54:47;;;;;;;;;;;15.20;67.00;;;14.39;32.59;94575.69;10486222;28;1789;-71
2022/03/29 18:59:50;;;;;;;;;;;15.20;66.80;;;14.29;33.39;94574.13;10483208;28;1951;-74
2022/03/29 19:04:54;;;;;;;;;;;15.20;67.10;;;14.22;33.50;94592.78;10474596;28;1884;-72
2022/03/29 19:09:58;;;;;;;;;;;15.10;67.50;;;14.24;33.53;94587.81;10472320;28;1852;-71
2022/03/29 19:15:00;;;;;;;;;;;15.10;67.30;;;14.10;34.37;94587.25;10476168;28;1918;-73
2022/03/29 19:20:04;;;;;;;;;;;15.10;67.90;;;14.00;35.09;94583.81;10470202;28;2056;-72
2022/03/29 19:25:07;;;;;;;;;;;15.00;68.40;;;13.94;35.18;94587.81;10469344;28;1975;-72
2022/03/29 19:30:11;;;;;;;;;;;14.90;68.90;;;13.85;35.70;94586.22;10483807;28;1789;-76
2022/03/29 19:35:14;;;;;;;;;;;14.90;69.40;;;13.94;35.85;94578.91;10468015;28;1982;-75
2022/03/29 19:40:17;;;;;;;;;;;14.80;69.80;;;13.81;36.82;94575.28;10465608;28;2344;-75
2022/03/29 19:45:21;;;;;;;;;;;14.80;70.00;;;13.73;37.01;94586.91;10473674;28;1873;-76
2022/03/29 19:50:24;;;;;;;;;;;14.70;70.50;;;13.69;36.59;94578.66;10470408;28;1801;-75
2022/03/29 19:55:47;;;;;;;;;;;14.70;70.60;;;13.67;36.49;94574.69;10471242;28;1913;-74
2022/03/29 20:00:50;;;;;;;;;;;14.70;70.80;;;13.70;36.60;94568.66;10469750;28;1982;-73
2022/03/29 20:05:53;;;;;;;;;;;14.60;70.90;;;13.63;37.16;94561.03;10473000;28;1948;-74
2022/03/29 20:10:56;;;;;;;;;;;14.60;70.90;;;13.64;36.59;94561.84;10471200;28;1895;-75
2022/03/29 20:15:59;;;;;;;;;;;14.60;71.00;;;13.52;37.85;94562.50;10467698;28;1946;-76
2022/03/29 20:21:03;;;;;;;;;;;14.60;71.40;;;13.60;37.38;94558.97;10468175;28;1884;-73
2022/03/29 20:26:06;;;;;;;;;;;14.50;71.60;;;13.47;37.44;94570.75;10495581;28;2131;-74
2022/03/29 20:31:11;;;;;;;;;;;14.50;71.80;;;13.41;38.21;94562.03;10478581;28;1977;-75
2022/03/29 20:36:14;;;;;;;;;;;14.40;72.00;;;13.48;37.58;94559.63;10475578;28;1906;-74
2022/03/29 20:41:18;;;;;;;;;;;14.40;72.30;;;13.38;38.68;94561.91;10468091;28;1968;-75
2022/03/29 20:46:21;;;;;;;;;;;14.30;72.50;;;13.31;38.69;94554.28;10464765;28;2122;-75
2022/03/29 20:51:25;;;;;;;;;;;14.30;72.80;;;13.31;38.94;94556.19;10473084;28;1841;-74
2022/03/29 20:56:28;;;;;;;;;;;14.20;73.00;;;13.13;39.62;94550.00;10484194;28;1887;-73
2022/03/29 21:01:31;;;;;;;;;;;14.20;73.40;;;13.04;40.01;94551.88;10469639;28;1868;-75
2022/03/29 21:06:35;;;;;;;;;;;14.10;73.70;;;12.93;40.38;94546.84;10471130;28;1829;-75
2022/03/29 21:11:38;;;;;;;;;;;14.00;74.10;;;12.88;40.59;94543.50;10472401;28;2111;-74
2022/03/29 21:16:42;;;;;;;;;;;13.90;74.60;;;12.84;40.82;94543.31;10474834;28;1976;-75
2022/03/29 21:21:45;;;;;;;;;;;13.90;74.70;;;12.75;41.20;94534.44;10474880;28;2046;-74
2022/03/29 21:26:48;;;;;;;;;;;13.80;75.10;;;12.80;41.33;94530.81;10470633;28;2046;-73
2022/03/29 21:31:51;;;;;;;;;;;13.70;75.30;;;12.70;41.39;94532.69;10473472;28;1967;-74
2022/03/29 21:36:54;;;;;;;;;;;13.70;75.60;;;12.66;41.85;94531.75;10473018;28;1978;-74
2022/03/29 21:41:57;;;;;;;;;;;13.70;75.80;;;12.61;42.69;94531.91;10476069;28;1955;-74
2022/03/29 21:47:03;;;;;;;;;;;13.70;76.20;;;12.56;42.80;94525.88;10468766;28;1817;-74
2022/03/29 21:52:06;;;;;;;;;;;13.60;76.40;;;12.51;42.26;94540.28;10471479;28;1856;-74
2022/03/29 21:57:09;;;;;;;;;;;13.50;76.60;;;12.45;43.08;94531.56;10482315;28;1987;-74
2022/03/29 22:02:13;;;;;;;;;;;13.40;76.90;;;12.48;43.11;94532.06;10482897;28;1808;-74
2022/03/29 22:07:15;;;;;;;;;;;13.50;77.10;;;12.42;43.08;94543.00;10484727;28;1845;-74
2022/03/29 22:12:19;;;;;;;;;;;13.40;77.30;;;12.34;44.04;94541.09;10508888;28;1812;-73
2022/03/29 22:17:22;;;;;;;;;;;13.40;77.50;;;12.37;43.88;94545.81;10484833;28;1926;-75
2022/03/29 22:22:25;;;;;;;;;;;13.30;77.80;;;12.34;43.82;94541.09;10481670;28;1875;-74
2022/03/29 22:27:28;;;;;;;;;;;13.30;78.00;;;12.24;44.43;94546.75;10474166;28;1995;-73
2022/03/29 22:32:31;;;;;;;;;;;13.20;78.20;;;12.25;44.79;94548.34;10480002;28;2027;-74
2022/03/29 22:37:34;;;;;;;;;;;13.20;78.50;;;12.29;44.65;94538.53;10477056;28;2023;-74
2022/03/29 22:42:38;;;;;;;;;;;13.20;78.80;;;12.24;45.07;94533.28;10472084;28;2026;-73
2022/03/29 22:47:41;;;;;;;;;;;13.20;79.20;;;12.26;45.49;94536.44;10478997;28;1833;-76
2022/03/29 22:52:45;;;;;;;;;;;13.20;79.50;;;12.24;45.75;94535.97;10474384;28;1891;-75
2022/03/29 22:57:49;;;;;;;;;;;13.20;80.20;;;12.10;46.44;94532.63;10480263;28;1906;-73
2022/03/29 23:02:52;;;;;;;;;;;13.00;80.50;;;11.97;46.85;94522.75;10471226;28;1872;-74
2022/03/29 23:07:56;;;;;;;;;;;13.00;81.00;;;11.87;47.96;94513.06;10502208;28;1972;-74
2022/03/29 23:12:59;;;;;;;;;;;12.90;81.50;;;11.68;48.64;94507.91;10478213;28;2358;-74
2022/03/29 23:18:02;;;;;;;;;;;12.80;81.90;;;11.64;48.69;94498.84;10477230;28;1891;-75
2022/03/29 23:23:05;;;;;;;;;;;12.70;82.50;;;11.61;49.23;94502.16;10471318;28;1944;-74
2022/03/29 23:28:08;;;;;;;;;;;12.60;82.70;;;11.66;48.99;94504.72;10485811;28;1864;-74
2022/03/29 23:33:11;;;;;;;;;;;12.60;83.00;;;11.69;48.78;94498.72;10473272;28;1899;-74
2022/03/29 23:38:14;;;;;;;;;;;12.60;83.10;;;11.60;49.99;94484.44;10482363;28;2000;-74
2022/03/29 23:43:17;;;;;;;;;;;12.60;83.20;;;11.56;49.87;94478.88;10475089;28;1853;-74
2022/03/29 23:48:21;;;;;;;;;;;12.60;83.40;;;11.56;50.13;94480.75;10477876;28;1857;-73